Time;durP1;ratioP1;P1;durP2;ratioP2;P2;SDS_P1;SDS_P2;PMS_P1;PMS_P2;Temp;Humidity;BMP_temperature;BMP_pressure;BME280_temperature;BME280_humidity;BME280_pressure;Samples;Min_cycle;Max_cycle;Signal;HPM_P1;HPM_P2
2022/01/25 00:08:53;;;;;;;7.40;4.13;;;18.90;48.70;;;;;;4945227;28;20047;-46
2022/01/25 00:25:19;;;;;;;4.65;4.10;;;18.80;48.70;;;;;;4947920;28;20047;-46
2022/01/25 00:27:53;;;;;;;9.18;5.20;;;18.70;48.70;;;;;;4942102;28;20043;-46
2022/01/25 00:30:27;;;;;;;6.18;4.65;;;18.70;48.70;;;;;;4940104;29;20142;-45
2022/01/25 00:32:54;;;;;;;4.80;4.22;;;18.70;48.80;;;;;;4936208;28;20061;-42
2022/01/25 00:35:22;;;;;;;6.18;4.72;;;18.60;48.70;;;;;;4943275;28;20826;-43
2022/01/25 00:37:49;;;;;;;5.30;4.80;;;18.60;48.80;;;;;;4951017;28;20046;-42
2022/01/25 00:40:17;;;;;;;5.93;4.80;;;18.60;48.70;;;;;;4951566;29;20067;-46
2022/01/25 00:42:44;;;;;;;6.80;5.53;;;18.60;48.70;;;;;;4950635;28;20057;-46
2022/01/25 00:45:14;;;;;;;4.40;4.07;;;18.60;48.70;;;;;;4951076;28;20121;-44
2022/01/25 00:47:46;;;;;;;3.95;3.65;;;18.60;48.80;;;;;;4949825;28;20520;-41
2022/01/25 00:50:15;;;;;;;5.55;4.97;;;18.60;48.80;;;;;;4952039;28;20071;-41
2022/01/25 00:55:36;;;;;;;5.05;4.30;;;18.50;48.60;;;;;;4909799;29;20052;-42
2022/01/25 00:58:03;;;;;;;5.78;4.20;;;18.50;48.70;;;;;;4910597;29;20054;-42
2022/01/25 01:00:30;;;;;;;5.45;4.72;;;18.50;48.70;;;;;;4909264;29;20056;-41
2022/01/25 01:02:57;;;;;;;6.03;3.70;;;18.50;48.70;;;;;;4909007;29;20449;-42
2022/01/25 01:05:25;;;;;;;4.70;4.30;;;18.50;48.70;;;;;;4908100;29;20050;-41
2022/01/25 01:07:53;;;;;;;5.55;4.95;;;18.40;48.60;;;;;;4905975;29;20055;-41
2022/01/25 01:10:22;;;;;;;5.78;5.18;;;18.50;48.60;;;;;;4908011;29;20059;-45
2022/01/25 01:15:38;;;;;;;3.78;3.58;;;18.40;48.60;;;;;;4905798;29;20056;-43
2022/01/25 01:29:15;;;;;;;3.58;3.08;;;18.30;48.50;;;;;;4905240;29;20044;-43
2022/01/25 01:34:58;;;;;;;;;;;18.30;48.50;;;;;;4943191;28;20059;-44
2022/01/25 01:43:14;;;;;;;4.70;3.22;;;18.10;48.40;;;;;;4881728;29;19923;-44
2022/01/25 01:45:48;;;;;;;4.13;3.60;;;18.10;48.60;;;;;;4888766;29;20049;-46
2022/01/25 01:48:27;;;;;;;4.75;3.65;;;18.10;48.60;;;;;;4889080;29;20136;-45
2022/01/25 01:50:54;;;;;;;6.03;4.93;;;18.10;48.60;;;;;;4888864;29;20048;-47
2022/01/25 01:53:21;;;;;;;3.45;3.13;;;18.10;48.50;;;;;;4888832;29;20127;-41
2022/01/25 01:55:49;;;;;;;4.05;3.58;;;18.10;48.40;;;;;;4889299;29;20060;-43
2022/01/25 01:58:16;;;;;;;3.17;2.97;;;18.10;48.40;;;;;;4890540;29;20556;-45
2022/01/25 02:00:48;;;;;;;4.43;4.03;;;18.10;48.40;;;;;;4888604;29;20052;-44
2022/01/25 02:03:15;;;;;;;4.57;3.28;;;18.10;48.40;;;;;;4888906;29;20048;-45
2022/01/25 02:05:43;;;;;;;5.20;3.67;;;18.10;48.40;;;;;;4888714;29;20593;-48
2022/01/25 02:08:11;;;;;;;3.55;3.15;;;18.10;48.30;;;;;;4888664;29;20560;-44
2022/01/25 02:10:39;;;;;;;4.80;3.75;;;18.10;48.30;;;;;;4889067;29;20055;-41
2022/01/25 02:13:08;;;;;;;3.15;2.70;;;18.10;48.30;;;;;;4890412;29;20135;-41
2022/01/25 02:15:36;;;;;;;3.38;3.13;;;18.10;48.30;;;;;;4888388;29;20126;-45
2022/01/25 02:23:36;;;;;;;4.05;3.63;;;18.00;48.20;;;;;;4948941;28;20047;-41
2022/01/25 02:26:06;;;;;;;4.85;4.45;;;18.00;48.80;;;;;;4949961;28;20045;-44
2022/01/25 02:28:36;;;;;;;3.20;2.92;;;18.00;48.20;;;;;;4949078;28;20174;-42
2022/01/25 02:31:06;;;;;;;4.95;2.78;;;18.00;48.20;;;;;;4947661;28;20154;-42
2022/01/25 02:33:34;;;;;;;4.57;4.05;;;18.00;48.20;;;;;;4950587;28;20047;-43
2022/01/25 02:36:06;;;;;;;4.65;3.17;;;18.00;48.20;;;;;;4949337;28;20055;-41
2022/01/25 02:38:33;;;;;;;3.60;3.30;;;18.00;48.20;;;;;;4949232;28;20075;-41
2022/01/25 02:41:02;;;;;;;4.57;2.72;;;17.90;48.10;;;;;;4948554;28;20520;-41
2022/01/25 02:43:30;;;;;;;5.53;3.00;;;18.00;48.10;;;;;;4948009;28;20050;-42
2022/01/25 02:48:54;;;;;;;3.92;3.63;;;17.90;48.10;;;;;;4942636;28;20047;-43
2022/01/25 02:51:25;;;;;;;3.10;2.88;;;17.90;48.00;;;;;;4948221;28;20043;-42
2022/01/25 02:53:52;;;;;;;3.65;2.92;;;17.90;48.00;;;;;;4949340;28;20040;-45
2022/01/25 02:56:20;;;;;;;3.15;2.95;;;17.90;48.20;;;;;;4949318;28;20416;-42
2022/01/25 02:58:47;;;;;;;3.10;2.63;;;17.90;47.90;;;;;;4948366;28;20047;-42
2022/01/25 03:01:15;;;;;;;3.60;3.30;;;17.90;47.90;;;;;;4949251;29;20047;-42
2022/01/25 03:03:42;;;;;;;3.03;2.65;;;17.90;47.90;;;;;;4948356;28;20440;-44
2022/01/25 03:06:09;;;;;;;2.90;2.63;;;17.90;47.90;;;;;;4949253;28;20042;-45
2022/01/25 03:08:38;;;;;;;2.83;2.55;;;17.80;47.80;;;;;;4948818;28;20047;-42
2022/01/25 03:11:05;;;;;;;2.97;2.25;;;17.90;47.80;;;;;;4948951;28;20043;-41
2022/01/25 03:13:33;;;;;;;5.28;2.58;;;17.90;47.80;;;;;;4948121;28;20175;-42
2022/01/25 03:16:04;;;;;;;2.97;2.40;;;17.90;47.70;;;;;;4949088;28;20043;-46
2022/01/25 03:18:45;;;;;;;3.33;2.67;;;17.90;47.70;;;;;;4949339;28;20043;-46
2022/01/25 03:21:20;;;;;;;2.70;2.50;;;17.90;47.70;;;;;;4948655;28;20043;-45
2022/01/25 03:23:50;;;;;;;1.73;1.63;;;17.90;47.70;;;;;;4948310;28;20130;-42
2022/01/25 03:26:18;;;;;;;2.50;2.30;;;17.90;47.70;;;;;;4948676;28;20043;-44
2022/01/25 03:28:45;;;;;;;1.80;1.70;;;17.90;47.70;;;;;;4948719;28;20049;-47
2022/01/25 03:31:13;;;;;;;2.20;2.00;;;17.80;47.60;;;;;;4948573;28;20047;-43
2022/01/25 03:33:41;;;;;;;2.35;2.15;;;17.80;47.50;;;;;;4950254;28;20043;-42
2022/01/25 03:36:09;;;;;;;1.83;1.73;;;17.90;47.50;;;;;;4947538;28;20039;-42
2022/01/25 03:38:37;;;;;;;3.35;2.20;;;17.90;47.50;;;;;;4947569;28;20491;-45
2022/01/25 03:41:08;;;;;;;3.30;2.15;;;17.80;47.40;;;;;;4949020;28;20070;-42
2022/01/25 03:43:36;;;;;;;2.55;2.35;;;17.90;47.40;;;;;;4948336;28;20163;-45
2022/01/25 03:46:10;;;;;;;4.72;2.50;;;17.90;47.40;;;;;;4947336;29;20062;-43
2022/01/25 03:51:21;;;;;;;3.22;1.98;;;17.80;47.30;;;;;;4947413;28;20043;-44
2022/01/25 03:53:48;;;;;;;2.05;1.33;;;17.80;47.30;;;;;;4948766;28;20050;-42
2022/01/25 03:56:16;;;;;;;2.78;1.80;;;17.80;47.30;;;;;;4948271;28;20051;-42
2022/01/25 03:58:43;;;;;;;3.35;2.25;;;17.80;47.20;;;;;;4947778;28;20039;-44
2022/01/25 04:01:10;;;;;;;3.10;2.80;;;17.80;47.20;;;;;;4947767;29;20135;-43
2022/01/25 04:03:43;;;;;;;2.20;1.95;;;17.80;47.10;;;;;;4948213;28;20045;-46
2022/01/25 04:06:17;;;;;;;1.75;1.65;;;17.80;47.10;;;;;;4948076;28;20126;-42
2022/01/25 04:08:44;;;;;;;2.58;2.30;;;17.80;47.10;;;;;;4947695;28;20587;-48
2022/01/25 04:11:11;;;;;;;2.58;1.80;;;17.80;47.10;;;;;;4947898;28;20050;-44
2022/01/25 04:13:39;;;;;;;3.25;2.13;;;17.80;47.10;;;;;;4948516;28;20051;-43
2022/01/25 04:16:12;;;;;;;2.95;2.15;;;17.70;47.00;;;;;;4946832;29;20043;-42
2022/01/25 04:18:53;;;;;;;2.17;1.98;;;17.70;47.00;;;;;;4948437;28;20587;-42
2022/01/25 04:21:40;;;;;;;2.67;2.47;;;17.70;47.00;;;;;;4947943;28;20135;-42
2022/01/25 04:26:55;;;;;;;2.85;2.55;;;17.70;47.00;;;;;;4947767;28;20054;-42
2022/01/25 04:29:23;;;;;;;2.45;2.25;;;17.70;47.00;;;;;;4949373;28;20046;-45
2022/01/25 04:31:50;;;;;;;3.50;2.33;;;17.70;46.90;;;;;;4947636;28;20043;-47
2022/01/25 04:34:37;;;;;;;2.25;2.05;;;17.70;46.90;;;;;;4947827;29;20051;-42
2022/01/25 04:51:08;;;;;;;3.85;2.65;;;17.60;46.90;;;;;;4946560;28;20071;-45
2022/01/25 04:53:44;;;;;;;4.30;3.22;;;17.70;47.00;;;;;;4946328;28;20039;-48
2022/01/25 04:56:17;;;;;;;3.45;2.85;;;17.60;46.90;;;;;;4948922;28;20046;-44
2022/01/25 04:58:51;;;;;;;4.15;3.85;;;17.60;46.90;;;;;;4946526;28;20801;-47
2022/01/25 05:01:20;;;;;;;2.72;2.40;;;17.60;46.90;;;;;;4947667;29;20125;-44
2022/01/25 05:03:57;;;;;;;3.70;2.75;;;17.70;47.00;;;;;;4948283;28;20063;-41
2022/01/25 05:06:25;;;;;;;3.63;2.40;;;17.60;46.90;;;;;;4943854;28;20047;-41
2022/01/25 05:08:55;;;;;;;4.18;3.03;;;17.60;46.90;;;;;;4945694;28;20319;-41
2022/01/25 05:11:31;;;;;;;2.78;2.30;;;17.70;46.90;;;;;;4946501;28;20540;-41
2022/01/25 05:14:13;;;;;;;3.27;2.90;;;17.70;46.90;;;;;;4948677;28;20043;-41
2022/01/25 05:16:49;;;;;;;4.97;2.70;;;17.70;46.90;;;;;;4950187;28;20043;-44
2022/01/25 05:22:25;;;;;;;3.47;2.38;;;17.70;46.80;;;;;;4950092;29;20055;-40
2022/01/25 05:24:53;;;;;;;7.53;3.75;;;17.60;46.80;;;;;;4951329;28;20054;-41
2022/01/25 05:27:23;;;;;;;3.20;2.33;;;17.60;46.70;;;;;;4946384;28;20035;-42
2022/01/25 05:29:50;;;;;;;5.22;2.80;;;17.60;46.70;;;;;;4947341;28;20447;-42
2022/01/25 05:32:18;;;;;;;5.72;4.28;;;17.70;46.70;;;;;;4949545;28;20083;-44
2022/01/25 05:34:45;;;;;;;6.80;3.35;;;17.70;46.70;;;;;;4941788;28;20070;-45
2022/01/25 05:37:12;;;;;;;7.75;3.47;;;17.70;46.70;;;;;;4950225;29;20495;-41
2022/01/25 05:39:40;;;;;;;4.55;3.70;;;17.70;46.70;;;;;;4949746;28;20047;-41
2022/01/25 05:42:42;;;;;;;4.68;3.58;;;17.70;46.70;;;;;;4945912;28;20054;-42
2022/01/25 05:45:19;;;;;;;3.72;2.80;;;17.70;46.70;;;;;;4948584;28;20063;-41
2022/01/25 05:47:48;;;;;;;4.78;3.85;;;17.70;46.70;;;;;;4949588;28;23287;-45
2022/01/25 05:50:15;;;;;;;3.67;2.90;;;17.70;46.60;;;;;;4947728;28;20043;-42
2022/01/25 05:52:42;;;;;;;3.88;3.47;;;17.70;46.60;;;;;;4947329;28;20416;-43
2022/01/25 05:55:11;;;;;;;6.43;3.78;;;17.70;46.60;;;;;;4935448;29;20147;-42
2022/01/25 05:57:38;;;;;;;4.97;3.35;;;17.70;46.60;;;;;;4949599;28;20051;-40
2022/01/25 06:00:08;;;;;;;5.00;3.35;;;17.60;46.50;;;;;;4946078;28;20051;-41
2022/01/25 06:02:36;;;;;;;3.53;3.13;;;17.70;46.60;;;;;;4948793;28;20508;-43
2022/01/25 06:05:06;;;;;;;4.63;3.25;;;17.70;46.50;;;;;;4948577;28;20138;-42
2022/01/25 06:07:34;;;;;;;7.25;4.15;;;17.70;46.50;;;;;;4946136;28;20052;-41
2022/01/25 06:10:02;;;;;;;6.07;3.90;;;17.70;46.50;;;;;;4949601;28;20147;-41
2022/01/25 06:12:29;;;;;;;5.38;3.65;;;17.60;46.40;;;;;;4951291;28;20579;-44
2022/01/25 06:14:56;;;;;;;4.32;2.60;;;17.60;47.00;;;;;;4949603;28;20043;-43
2022/01/25 06:17:23;;;;;;;5.70;4.25;;;17.70;46.40;;;;;;4947851;28;20058;-42
2022/01/25 06:19:50;;;;;;;5.93;3.70;;;17.60;46.40;;;;;;4948200;28;20039;-45
2022/01/25 06:22:19;;;;;;;3.63;3.30;;;17.60;46.40;;;;;;4949462;29;20134;-47
2022/01/25 06:24:46;;;;;;;5.85;3.85;;;17.70;46.40;;;;;;4948329;28;20058;-47
2022/01/25 06:27:13;;;;;;;6.00;3.78;;;17.60;46.30;;;;;;4947823;28;20058;-44
2022/01/25 06:29:41;;;;;;;5.28;3.97;;;17.70;46.40;;;;;;4948717;28;20039;-44
2022/01/25 06:32:09;;;;;;;6.07;4.30;;;17.60;46.30;;;;;;4949574;28;20053;-43
2022/01/25 06:34:36;;;;;;;4.35;3.92;;;17.60;46.30;;;;;;4948894;28;20043;-43
2022/01/25 06:37:04;;;;;;;6.13;4.47;;;17.60;46.30;;;;;;4948245;28;20087;-41
2022/01/25 06:39:33;;;;;;;6.20;3.83;;;17.60;46.30;;;;;;4948571;28;20065;-41
2022/01/25 06:42:00;;;;;;;4.78;3.80;;;17.60;46.30;;;;;;4947518;28;20447;-42
2022/01/25 06:44:27;;;;;;;5.70;4.40;;;17.60;46.30;;;;;;4947919;28;20051;-45
2022/01/25 06:46:54;;;;;;;6.15;3.67;;;17.60;46.30;;;;;;4946322;28;20051;-44
2022/01/25 06:49:21;;;;;;;5.72;3.05;;;17.60;46.20;;;;;;4947973;28;20401;-42
2022/01/25 06:51:49;;;;;;;6.88;5.07;;;17.60;46.20;;;;;;4946814;28;20047;-43
2022/01/25 06:54:17;;;;;;;6.88;4.72;;;17.60;46.20;;;;;;4929677;29;20613;-41
2022/01/25 06:56:45;;;;;;;6.28;4.38;;;17.60;46.20;;;;;;4947526;28;20443;-42
2022/01/25 06:59:12;;;;;;;6.97;4.72;;;17.60;46.20;;;;;;4947975;28;20046;-41
2022/01/25 07:01:39;;;;;;;6.53;4.47;;;17.60;46.20;;;;;;4948226;28;20043;-43
2022/01/25 07:04:07;;;;;;;6.95;4.20;;;17.60;46.20;;;;;;4948883;29;20101;-46
2022/01/25 07:06:34;;;;;;;6.93;4.35;;;17.60;46.20;;;;;;4949538;28;20122;-43
2022/01/25 07:09:02;;;;;;;4.85;3.83;;;17.60;46.20;;;;;;4947370;28;20117;-45
2022/01/25 07:11:30;;;;;;;6.63;4.03;;;17.60;46.20;;;;;;4948700;28;20482;-45
2022/01/25 07:13:58;;;;;;;5.05;4.53;;;17.60;46.20;;;;;;4948856;28;20047;-41
2022/01/25 07:16:26;;;;;;;7.15;4.82;;;17.60;46.20;;;;;;4948195;29;20074;-43
2022/01/25 07:18:53;;;;;;;4.85;3.90;;;17.60;46.20;;;;;;4947419;28;20046;-46
2022/01/25 07:21:21;;;;;;;6.68;4.18;;;17.60;46.20;;;;;;4931121;29;20046;-43
2022/01/25 07:23:48;;;;;;;6.55;4.55;;;17.60;46.20;;;;;;4948219;28;20142;-41
2022/01/25 07:26:15;;;;;;;5.82;4.43;;;17.60;46.20;;;;;;4946619;28;20050;-42
2022/01/25 07:28:43;;;;;;;6.90;4.32;;;17.60;46.10;;;;;;4945513;28;20053;-41
2022/01/25 07:31:12;;;;;;;7.93;4.65;;;17.60;46.10;;;;;;4948897;29;20522;-41
2022/01/25 07:33:39;;;;;;;6.07;3.85;;;17.60;46.10;;;;;;4946739;28;20068;-43
2022/01/25 07:36:06;;;;;;;6.05;4.60;;;17.60;46.20;;;;;;4946669;28;20090;-40
2022/01/25 07:38:34;;;;;;;6.28;3.85;;;17.60;46.10;;;;;;4948597;28;20549;-45
2022/01/25 07:41:01;;;;;;;7.20;4.10;;;17.60;46.10;;;;;;4946000;28;20035;-46
2022/01/25 07:43:28;;;;;;;4.68;3.72;;;17.60;46.10;;;;;;4947231;28;20047;-46
2022/01/25 07:45:59;;;;;;;6.10;4.50;;;17.60;46.10;;;;;;4948284;28;20495;-40
2022/01/25 07:48:27;;;;;;;5.50;3.80;;;17.50;46.00;;;;;;4948847;28;20055;-41
2022/01/25 07:50:54;;;;;;;6.50;4.22;;;17.60;46.10;;;;;;4946615;28;20527;-43
2022/01/25 07:53:21;;;;;;;5.30;4.18;;;17.60;46.10;;;;;;4948542;28;20071;-44
2022/01/25 07:55:49;;;;;;;6.85;4.30;;;17.50;46.10;;;;;;4946107;28;20835;-43
2022/01/25 07:58:16;;;;;;;7.32;5.38;;;17.50;46.10;;;;;;4948229;29;20420;-42
2022/01/25 08:00:43;;;;;;;7.45;4.97;;;17.50;46.20;;;;;;4943536;28;20802;-41
2022/01/25 08:03:11;;;;;;;6.40;5.20;;;17.60;46.40;;;;;;4928086;29;20452;-43
2022/01/25 08:05:40;;;;;;;7.65;4.43;;;17.60;46.40;;;;;;4945352;28;20077;-40
2022/01/25 08:08:07;;;;;;;15.32;5.70;;;17.60;46.50;;;;;;4945356;28;20055;-43
2022/01/25 08:10:34;;;;;;;14.07;4.40;;;17.50;46.60;;;;;;4946789;28;20039;-45
2022/01/25 08:13:01;;;;;;;14.75;5.07;;;17.50;46.80;;;;;;4949509;28;20051;-43
2022/01/25 08:15:29;;;;;;;5.93;4.05;;;17.60;46.80;;;;;;4945329;28;20420;-42
2022/01/25 08:17:56;;;;;;;14.45;5.00;;;17.60;46.80;;;;;;4946594;28;20047;-46
2022/01/25 08:20:24;;;;;;;10.07;5.57;;;17.60;46.80;;;;;;4947488;28;20644;-48
2022/01/25 08:22:52;;;;;;;11.90;4.75;;;17.50;46.70;;;;;;4930985;28;20043;-46
2022/01/25 08:25:20;;;;;;;18.75;5.97;;;17.60;46.70;;;;;;4948207;28;20039;-45
2022/01/25 08:27:47;;;;;;;10.13;5.43;;;17.60;46.60;;;;;;4946877;28;20118;-42
2022/01/25 08:30:15;;;;;;;7.22;4.13;;;17.60;46.60;;;;;;4947798;28;20125;-45
2022/01/25 08:32:43;;;;;;;10.50;4.63;;;17.50;46.50;;;;;;4946369;28;20125;-43
2022/01/25 08:35:11;;;;;;;7.47;4.05;;;17.50;46.50;;;;;;4947943;28;20432;-51
2022/01/25 08:37:39;;;;;;;9.00;4.65;;;17.50;47.00;;;;;;4946927;28;20046;-41
2022/01/25 08:40:09;;;;;;;9.07;3.85;;;17.50;46.40;;;;;;4947923;29;20090;-44
2022/01/25 08:42:37;;;;;;;5.72;4.55;;;17.60;46.30;;;;;;4946698;28;20054;-46
2022/01/25 08:45:06;;;;;;;10.82;5.43;;;17.50;46.20;;;;;;4947280;28;20045;-50
2022/01/25 08:47:33;;;;;;;6.68;3.17;;;17.50;46.20;;;;;;4949425;28;20130;-46
2022/01/25 08:50:01;;;;;;;7.15;3.95;;;17.50;46.10;;;;;;4950131;28;20138;-47
2022/01/25 08:52:29;;;;;;;6.05;3.70;;;17.50;46.10;;;;;;4951082;28;20113;-47
2022/01/25 08:54:57;;;;;;;8.13;4.05;;;17.50;46.00;;;;;;4951245;28;20069;-43
2022/01/25 08:57:26;;;;;;;9.68;3.58;;;17.50;46.00;;;;;;4951434;28;20074;-52
2022/01/25 08:59:54;;;;;;;6.85;4.57;;;17.50;45.90;;;;;;4950160;28;20573;-47
2022/01/25 09:02:21;;;;;;;7.78;4.15;;;17.50;45.90;;;;;;4951073;28;20137;-46
2022/01/25 09:04:48;;;;;;;5.13;3.50;;;17.50;45.90;;;;;;4950885;28;20047;-46
2022/01/25 09:07:16;;;;;;;6.32;5.35;;;17.50;45.70;;;;;;4950842;29;20047;-46
2022/01/25 09:09:43;;;;;;;7.40;4.43;;;17.50;45.70;;;;;;4950886;28;20051;-46
2022/01/25 09:12:11;;;;;;;5.20;3.83;;;17.50;45.70;;;;;;4947749;28;20047;-47
2022/01/25 09:14:40;;;;;;;4.63;4.15;;;17.50;45.70;;;;;;4951933;28;20103;-48
2022/01/25 09:17:10;;;;;;;4.90;3.90;;;17.50;45.60;;;;;;4949728;28;20408;-46
2022/01/25 09:19:38;;;;;;;5.88;4.40;;;17.50;45.60;;;;;;4949880;28;20078;-45
2022/01/25 09:22:06;;;;;;;5.05;3.30;;;17.50;45.60;;;;;;4950972;29;20102;-45
2022/01/25 09:24:33;;;;;;;4.60;3.88;;;17.50;45.60;;;;;;4950349;28;20150;-47
2022/01/25 09:27:04;;;;;;;5.53;3.85;;;17.50;45.50;;;;;;4948969;28;20105;-46
2022/01/25 09:29:31;;;;;;;8.15;4.22;;;17.50;46.10;;;;;;4950028;28;20051;-43
2022/01/25 09:32:00;;;;;;;5.45;3.08;;;17.50;45.40;;;;;;4949654;28;20073;-44
2022/01/25 09:34:27;;;;;;;4.05;2.83;;;17.50;45.40;;;;;;4950035;28;20131;-50
2022/01/25 09:36:54;;;;;;;7.55;4.35;;;17.50;45.30;;;;;;4948515;28;20054;-44
2022/01/25 09:39:22;;;;;;;6.80;3.38;;;17.50;45.30;;;;;;4950318;28;20135;-44
2022/01/25 09:41:49;;;;;;;7.32;3.58;;;17.50;45.20;;;;;;4949323;28;20035;-45
2022/01/25 09:44:17;;;;;;;3.78;3.08;;;17.50;45.20;;;;;;4949973;28;20048;-45
2022/01/25 09:46:45;;;;;;;5.68;3.67;;;17.50;45.20;;;;;;4948935;28;20050;-45
2022/01/25 09:49:14;;;;;;;11.18;3.35;;;17.50;45.20;;;;;;4950519;29;20043;-45
2022/01/25 09:51:42;;;;;;;6.10;3.75;;;17.50;45.10;;;;;;4949432;28;20044;-47
2022/01/25 09:54:09;;;;;;;5.22;2.88;;;17.50;45.10;;;;;;4949749;28;20035;-50
2022/01/25 09:56:37;;;;;;;8.70;4.18;;;17.50;45.00;;;;;;4948886;28;20075;-45
2022/01/25 09:59:04;;;;;;;5.72;4.32;;;17.50;45.00;;;;;;4948069;28;20051;-45
2022/01/25 10:01:32;;;;;;;4.65;3.67;;;17.50;45.00;;;;;;4949354;28;20146;-45
2022/01/25 10:04:04;;;;;;;5.28;3.65;;;17.50;44.90;;;;;;4949205;28;20050;-46
2022/01/25 10:06:34;;;;;;;4.55;3.38;;;17.50;44.90;;;;;;4949723;28;20047;-42
2022/01/25 10:09:01;;;;;;;5.40;3.88;;;17.50;44.90;;;;;;4947887;28;20471;-45
2022/01/25 10:11:28;;;;;;;4.78;3.67;;;17.50;44.90;;;;;;4949419;28;20150;-47
2022/01/25 10:13:58;;;;;;;7.88;3.80;;;17.50;44.80;;;;;;4949668;28;20495;-49
2022/01/25 10:16:32;;;;;;;7.15;3.78;;;17.60;44.90;;;;;;4947611;29;20074;-45
2022/01/25 10:19:01;;;;;;;6.18;4.32;;;17.60;44.80;;;;;;4949515;29;20089;-42
2022/01/25 10:21:34;;;;;;;13.05;4.45;;;17.50;44.80;;;;;;4949498;28;20043;-43
2022/01/25 10:24:05;;;;;;;4.07;3.67;;;17.60;44.80;;;;;;4948951;28;20096;-44
2022/01/25 10:26:34;;;;;;;5.10;3.70;;;17.60;44.80;;;;;;4943633;28;20138;-45
2022/01/25 10:29:02;;;;;;;6.38;3.58;;;17.60;44.70;;;;;;4949575;28;20044;-44
2022/01/25 10:31:35;;;;;;;5.20;3.17;;;17.60;44.70;;;;;;4948519;28;20046;-43
2022/01/25 10:34:03;;;;;;;7.40;4.28;;;17.60;44.70;;;;;;4948661;28;20049;-43
2022/01/25 10:36:31;;;;;;;6.38;3.92;;;17.60;44.70;;;;;;4949038;28;20055;-42
2022/01/25 10:39:00;;;;;;;5.28;3.85;;;17.60;44.70;;;;;;4949152;28;20513;-44
2022/01/25 10:41:29;;;;;;;6.65;4.03;;;17.60;44.60;;;;;;4949384;28;20401;-48
2022/01/25 10:43:57;;;;;;;4.80;3.30;;;17.60;44.60;;;;;;4944495;28;20043;-48
2022/01/25 10:46:27;;;;;;;6.68;4.65;;;17.50;44.50;;;;;;4949213;29;20118;-44
2022/01/25 10:48:57;;;;;;;4.95;3.75;;;17.60;44.60;;;;;;4949598;28;20047;-48
2022/01/25 10:51:27;;;;;;;6.80;4.22;;;17.60;44.50;;;;;;4947883;28;20134;-46
2022/01/25 10:54:15;;;;;;;3.83;3.17;;;17.60;44.50;;;;;;4949304;28;20043;-46
2022/01/25 10:56:46;;;;;;;6.25;4.00;;;17.60;44.40;;;;;;4948614;28;20807;-42
2022/01/25 10:59:16;;;;;;;4.35;3.28;;;17.60;44.40;;;;;;4948211;28;20043;-42
2022/01/25 11:01:53;;;;;;;5.63;3.80;;;17.60;44.40;;;;;;4948811;28;20878;-43
2022/01/25 11:04:26;;;;;;;7.22;2.97;;;17.60;44.30;;;;;;4949021;29;20125;-45
2022/01/25 11:06:59;;;;;;;3.75;3.40;;;17.60;44.40;;;;;;4948946;28;20444;-45
2022/01/25 11:09:35;;;;;;;6.28;4.13;;;17.60;44.30;;;;;;4947866;28;20125;-43
2022/01/25 11:12:05;;;;;;;6.45;4.20;;;17.60;44.30;;;;;;4948131;28;20035;-44
2022/01/25 11:17:17;;;;;;;6.25;3.95;;;17.60;44.30;;;;;;4948232;28;20047;-44
2022/01/25 11:19:45;;;;;;;5.10;3.72;;;17.60;44.30;;;;;;4948663;28;20047;-45
2022/01/25 11:22:19;;;;;;;5.07;3.60;;;17.60;44.20;;;;;;4948689;29;20058;-46
2022/01/25 11:24:52;;;;;;;5.25;3.88;;;17.70;44.30;;;;;;4948726;28;20118;-43
2022/01/25 11:27:20;;;;;;;4.03;2.97;;;17.70;44.20;;;;;;4947981;28;20035;-42
2022/01/25 11:29:49;;;;;;;7.63;4.43;;;17.60;44.10;;;;;;4942601;28;20058;-41
2022/01/25 11:32:23;;;;;;;4.93;4.10;;;17.70;44.10;;;;;;4947614;28;20103;-45
2022/01/25 11:34:51;;;;;;;5.68;3.33;;;17.70;44.10;;;;;;4948503;28;20599;-45
2022/01/25 11:37:19;;;;;;;4.35;3.88;;;17.70;44.00;;;;;;4948526;29;20126;-44
2022/01/25 11:39:50;;;;;;;4.25;3.22;;;17.70;44.00;;;;;;4948089;28;20134;-42
2022/01/25 11:42:20;;;;;;;4.82;3.85;;;17.70;43.90;;;;;;4948097;28;20131;-47
2022/01/25 11:44:50;;;;;;;5.00;4.47;;;17.70;43.90;;;;;;4948408;28;20059;-43
2022/01/25 11:47:20;;;;;;;5.50;4.63;;;17.70;43.90;;;;;;4948131;28;20128;-45
2022/01/25 11:49:53;;;;;;;7.03;4.78;;;17.70;43.80;;;;;;4948296;28;20499;-44
2022/01/25 11:52:21;;;;;;;4.78;3.38;;;17.70;43.80;;;;;;4948331;28;20043;-42
2022/01/25 11:54:52;;;;;;;6.05;4.22;;;17.70;43.80;;;;;;4947876;28;20087;-43
2022/01/25 11:57:22;;;;;;;4.05;3.35;;;17.70;43.80;;;;;;4948467;28;20036;-41
2022/01/25 11:59:54;;;;;;;4.90;3.30;;;17.70;43.80;;;;;;4949234;28;20047;-43
2022/01/25 12:02:38;;;;;;;4.68;3.38;;;17.70;43.70;;;;;;4948179;28;20039;-44
2022/01/25 12:05:06;;;;;;;5.30;4.25;;;17.80;43.70;;;;;;4942137;28;20051;-44
2022/01/25 12:07:39;;;;;;;4.50;3.03;;;17.70;43.70;;;;;;4947087;28;20134;-45
2022/01/25 12:10:30;;;;;;;7.20;4.47;;;17.70;43.70;;;;;;4945920;29;20079;-45
2022/01/25 12:13:12;;;;;;;4.88;3.35;;;17.70;43.60;;;;;;4947089;29;20054;-44
2022/01/25 12:15:39;;;;;;;6.15;4.40;;;17.70;43.60;;;;;;4948255;28;20047;-47
2022/01/25 12:18:09;;;;;;;4.82;3.28;;;17.70;43.60;;;;;;4947434;28;20051;-45
2022/01/25 12:20:48;;;;;;;4.72;3.38;;;17.70;43.60;;;;;;4948373;28;20045;-43
2022/01/25 12:23:19;;;;;;;6.30;4.03;;;17.80;44.20;;;;;;4950035;28;20134;-42
2022/01/25 12:25:52;;;;;;;5.13;3.72;;;17.70;43.50;;;;;;4951840;28;20043;-42
2022/01/25 12:28:24;;;;;;;5.05;3.95;;;17.70;43.50;;;;;;4952351;28;20043;-43
2022/01/25 12:30:51;;;;;;;8.05;4.68;;;17.80;43.60;;;;;;4952221;28;20167;-45
2022/01/25 12:33:22;;;;;;;5.30;3.70;;;17.80;43.60;;;;;;4952233;28;20444;-43
2022/01/25 12:35:52;;;;;;;5.15;3.78;;;17.80;43.50;;;;;;4949451;28;20607;-43
2022/01/25 12:38:23;;;;;;;5.38;4.53;;;17.80;43.50;;;;;;4951633;28;20588;-46
2022/01/25 12:41:06;;;;;;;5.38;3.53;;;17.80;43.50;;;;;;4949805;28;20436;-43
2022/01/25 12:43:38;;;;;;;5.75;4.05;;;17.80;43.40;;;;;;4947627;29;20584;-44
2022/01/25 12:46:09;;;;;;;6.90;4.10;;;17.80;43.50;;;;;;4951266;28;20261;-42
2022/01/25 12:48:40;;;;;;;5.20;4.43;;;17.80;43.40;;;;;;4947138;29;20055;-47
2022/01/25 12:51:09;;;;;;;7.20;3.88;;;17.80;44.00;;;;;;4940829;28;20031;-46
2022/01/25 12:53:41;;;;;;;3.90;3.20;;;17.80;43.40;;;;;;4942722;28;20534;-47
2022/01/25 12:56:13;;;;;;;4.60;3.50;;;17.80;43.30;;;;;;4948748;28;20081;-47
2022/01/25 12:58:41;;;;;;;5.38;4.10;;;17.80;43.30;;;;;;4949856;28;20039;-44
2022/01/25 13:01:12;;;;;;;7.32;5.05;;;17.80;43.20;;;;;;4953062;28;20046;-47
2022/01/25 13:03:44;;;;;;;4.85;3.95;;;17.80;43.20;;;;;;4951025;28;20046;-43
2022/01/25 13:06:14;;;;;;;7.18;3.85;;;17.80;43.20;;;;;;4949293;28;20125;-42
2022/01/25 13:08:47;;;;;;;5.80;4.40;;;17.80;43.20;;;;;;4949836;28;20047;-44
2022/01/25 13:11:37;;;;;;;5.78;4.13;;;17.80;43.20;;;;;;4950793;28;20138;-43
2022/01/25 13:14:18;;;;;;;4.40;3.63;;;17.80;43.20;;;;;;4948086;29;20122;-44
2022/01/25 13:16:49;;;;;;;2.95;2.75;;;17.80;43.20;;;;;;4947712;28;20130;-44
2022/01/25 13:19:19;;;;;;;6.47;4.35;;;17.80;43.80;;;;;;4951343;29;20331;-44
2022/01/25 13:21:52;;;;;;;4.45;3.53;;;17.80;43.20;;;;;;4949155;28;20054;-41
2022/01/25 13:24:21;;;;;;;3.85;3.40;;;17.80;43.20;;;;;;4950814;28;20404;-44
2022/01/25 13:26:59;;;;;;;6.10;4.82;;;17.80;43.20;;;;;;4946111;28;20062;-42
2022/01/25 13:32:24;;;;;;;4.57;4.10;;;17.80;43.20;;;;;;4946482;28;20130;-45
2022/01/25 13:35:16;;;;;;;6.88;3.83;;;17.80;43.20;;;;;;4949657;28;20043;-45
2022/01/25 13:38:09;;;;;;;3.47;2.95;;;17.80;43.10;;;;;;4943724;28;20066;-46
2022/01/25 13:40:47;;;;;;;5.72;4.20;;;17.80;43.20;;;;;;4949796;28;20404;-45
2022/01/25 13:46:36;;;;;;;6.57;3.92;;;17.80;43.10;;;;;;4869256;29;20128;-46
2022/01/25 13:49:06;;;;;;;4.55;3.65;;;17.70;43.10;;;;;;4872193;29;20063;-45
2022/01/25 13:51:41;;;;;;;8.30;4.00;;;17.80;43.20;;;;;;4871979;29;20049;-43
2022/01/25 13:54:12;;;;;;;5.55;4.35;;;17.80;43.20;;;;;;4871595;29;20063;-47
2022/01/25 13:56:39;;;;;;;8.13;4.30;;;17.70;43.10;;;;;;4869944;29;20097;-46
2022/01/25 13:59:08;;;;;;;5.20;3.58;;;17.70;43.10;;;;;;4871882;29;20169;-48
2022/01/25 14:01:39;;;;;;;4.97;4.25;;;17.80;43.10;;;;;;4873570;29;20257;-47
2022/01/25 14:04:08;;;;;;;6.82;4.25;;;17.80;43.10;;;;;;4880544;29;20047;-45
2022/01/25 14:06:39;;;;;;;5.68;4.05;;;17.80;43.10;;;;;;4872957;29;20338;-45
2022/01/25 14:09:12;;;;;;;5.85;4.63;;;17.70;43.10;;;;;;4871419;29;20572;-44
2022/01/25 14:21:33;;;;;;;4.75;3.55;;;17.70;43.10;;;;;;4873128;29;20105;-47
2022/01/25 14:23:26;;;;;;;8.10;4.25;;;17.70;43.10;;;;;;4880902;29;20076;-44
2022/01/25 14:26:01;;;;;;;7.05;4.20;;;17.70;43.10;;;;;;4907003;29;20052;-46
2022/01/25 14:28:28;;;;;;;4.13;3.40;;;17.70;43.10;;;;;;4905059;29;20108;-48
2022/01/25 14:30:58;;;;;;;6.40;4.35;;;17.70;43.10;;;;;;4908063;29;20075;-44
2022/01/25 14:33:28;;;;;;;6.03;3.55;;;17.70;43.10;;;;;;4905256;29;20079;-49
2022/01/25 14:35:57;;;;;;;5.75;4.40;;;17.70;43.10;;;;;;4906906;29;20091;-46